Time;durP1;ratioP1;P1;durP2;ratioP2;P2;SDS_P1;SDS_P2;PMS_P1;PMS_P2;Temp;Humidity;BMP_temperature;BMP_pressure;BME280_temperature;BME280_humidity;BME280_pressure;Samples;Min_cycle;Max_cycle;Signal;HPM_P1;HPM_P2
2021/10/08 00:01:37;;;;;;;7.65;5.07;;;;;;;;;;4971714;28;20502;-58
2021/10/08 00:04:03;;;;;;;8.45;5.30;;;;;;;;;;4971219;28;20445;-59
2021/10/08 00:06:29;;;;;;;8.00;5.90;;;;;;;;;;4971359;28;20437;-58
2021/10/08 00:08:55;;;;;;;8.55;5.32;;;;;;;;;;4970267;28;20031;-58
2021/10/08 00:11:20;;;;;;;9.20;5.90;;;;;;;;;;4958121;28;20284;-58
2021/10/08 00:13:45;;;;;;;9.45;5.22;;;;;;;;;;4966780;28;20035;-58
2021/10/08 00:16:13;;;;;;;10.30;5.50;;;;;;;;;;4970389;28;20034;-58
2021/10/08 00:18:38;;;;;;;10.77;6.97;;;;;;;;;;4952975;28;20037;-58
2021/10/08 00:21:05;;;;;;;10.20;6.18;;;;;;;;;;4969023;28;20035;-58
2021/10/08 00:23:31;;;;;;;9.32;6.75;;;;;;;;;;4967484;28;20081;-58
2021/10/08 00:25:57;;;;;;;10.65;6.57;;;;;;;;;;4975910;28;20073;-57
2021/10/08 00:28:23;;;;;;;13.30;7.22;;;;;;;;;;4969296;28;20034;-58
2021/10/08 00:30:48;;;;;;;12.00;7.25;;;;;;;;;;4965285;28;20027;-57
2021/10/08 00:33:14;;;;;;;12.07;7.30;;;;;;;;;;4965702;28;20062;-57
2021/10/08 00:35:39;;;;;;;10.73;7.10;;;;;;;;;;4970697;28;20045;-57
2021/10/08 00:38:06;;;;;;;11.23;6.47;;;;;;;;;;4951578;28;20121;-59
2021/10/08 00:40:33;;;;;;;10.60;6.38;;;;;;;;;;4962432;28;20081;-58
2021/10/08 00:42:59;;;;;;;9.88;6.30;;;;;;;;;;4969719;28;20027;-57
2021/10/08 00:45:24;;;;;;;11.05;6.10;;;;;;;;;;4968204;28;20038;-57
2021/10/08 00:48:01;;;;;;;9.10;5.85;;;;;;;;;;4963918;28;20603;-57
2021/10/08 00:50:28;;;;;;;12.57;6.70;;;;;;;;;;4947222;28;20529;-58
2021/10/08 00:52:54;;;;;;;8.57;5.72;;;;;;;;;;4969643;28;20085;-57
2021/10/08 00:55:20;;;;;;;8.73;5.93;;;;;;;;;;4970744;28;20031;-57
2021/10/08 00:57:46;;;;;;;11.55;5.90;;;;;;;;;;4966541;28;20107;-58
2021/10/08 01:00:17;;;;;;;9.70;6.28;;;;;;;;;;4970862;28;20086;-58
2021/10/08 01:02:43;;;;;;;10.98;5.80;;;;;;;;;;4969476;28;20039;-58
2021/10/08 01:05:10;;;;;;;7.90;5.65;;;;;;;;;;4968830;28;20110;-58
2021/10/08 01:07:35;;;;;;;9.05;6.25;;;;;;;;;;4972398;28;20035;-58
2021/10/08 01:10:00;;;;;;;11.43;6.15;;;;;;;;;;4967459;28;20080;-58
2021/10/08 01:12:26;;;;;;;9.30;5.50;;;;;;;;;;4969581;28;20066;-58
2021/10/08 01:14:51;;;;;;;10.48;5.93;;;;;;;;;;4974874;28;20034;-57
2021/10/08 01:17:18;;;;;;;10.05;5.82;;;;;;;;;;4965962;28;20034;-58
2021/10/08 01:19:44;;;;;;;9.73;6.00;;;;;;;;;;4966968;28;20063;-57
2021/10/08 01:22:10;;;;;;;11.25;6.38;;;;;;;;;;4969095;28;20081;-58
2021/10/08 01:24:36;;;;;;;9.20;6.68;;;;;;;;;;4969227;28;20035;-59
2021/10/08 01:27:06;;;;;;;12.27;6.88;;;;;;;;;;4965893;28;20054;-58
2021/10/08 01:29:33;;;;;;;12.55;6.85;;;;;;;;;;4965086;28;20027;-58
2021/10/08 01:31:59;;;;;;;12.05;6.63;;;;;;;;;;4970353;28;20038;-58
2021/10/08 01:34:25;;;;;;;10.07;6.60;;;;;;;;;;4966343;28;20050;-58
2021/10/08 01:36:51;;;;;;;14.00;6.25;;;;;;;;;;4968129;28;23656;-58
2021/10/08 01:39:16;;;;;;;12.48;7.53;;;;;;;;;;4953941;28;20034;-58
2021/10/08 01:41:42;;;;;;;12.88;6.88;;;;;;;;;;4963600;28;20026;-58
2021/10/08 01:44:08;;;;;;;10.32;6.30;;;;;;;;;;4965981;28;20039;-58
2021/10/08 01:46:33;;;;;;;11.77;5.82;;;;;;;;;;4952033;28;20062;-58
2021/10/08 01:48:58;;;;;;;10.52;6.55;;;;;;;;;;4956407;28;20030;-58
2021/10/08 01:51:24;;;;;;;10.18;6.10;;;;;;;;;;4964773;28;20030;-58
2021/10/08 01:53:50;;;;;;;9.98;6.50;;;;;;;;;;4965977;28;20457;-58
2021/10/08 01:56:15;;;;;;;12.65;6.20;;;;;;;;;;4973670;28;20387;-58
2021/10/08 01:58:41;;;;;;;9.23;6.00;;;;;;;;;;4966288;28;20035;-58
2021/10/08 02:01:06;;;;;;;9.65;5.75;;;;;;;;;;4965126;28;20029;-59
2021/10/08 02:03:33;;;;;;;11.57;6.70;;;;;;;;;;4974656;28;20034;-58
2021/10/08 02:05:59;;;;;;;11.18;5.97;;;;;;;;;;4969158;28;20054;-58
2021/10/08 02:08:25;;;;;;;9.93;6.15;;;;;;;;;;4967577;28;20500;-58
2021/10/08 02:10:51;;;;;;;11.38;6.18;;;;;;;;;;4964524;28;20037;-58
2021/10/08 02:13:18;;;;;;;11.48;6.78;;;;;;;;;;4967267;28;20038;-58
2021/10/08 02:15:44;;;;;;;12.25;6.07;;;;;;;;;;4964123;28;20408;-58
2021/10/08 02:18:10;;;;;;;9.77;6.13;;;;;;;;;;4969033;28;20516;-58
2021/10/08 02:20:35;;;;;;;10.30;5.85;;;;;;;;;;4965995;28;20030;-59
2021/10/08 02:23:01;;;;;;;10.70;6.43;;;;;;;;;;4965680;28;21419;-58
2021/10/08 02:25:26;;;;;;;10.57;6.00;;;;;;;;;;4971223;28;20027;-59
2021/10/08 02:27:51;;;;;;;11.10;6.10;;;;;;;;;;4965642;28;20069;-58
2021/10/08 02:30:18;;;;;;;10.35;6.22;;;;;;;;;;4965825;28;20038;-58
2021/10/08 02:32:43;;;;;;;11.02;5.82;;;;;;;;;;4954977;28;20039;-58
2021/10/08 02:35:09;;;;;;;9.32;5.85;;;;;;;;;;4968389;28;20077;-58
2021/10/08 02:37:34;;;;;;;12.35;5.88;;;;;;;;;;4968194;28;20375;-58
2021/10/08 02:40:00;;;;;;;14.48;5.60;;;;;;;;;;4970200;28;20048;-58
2021/10/08 02:42:25;;;;;;;11.45;6.45;;;;;;;;;;4968003;28;20126;-58
2021/10/08 02:44:51;;;;;;;11.10;6.13;;;;;;;;;;4965836;28;20113;-58
2021/10/08 02:47:16;;;;;;;11.57;6.05;;;;;;;;;;4968233;28;20041;-58
2021/10/08 02:49:42;;;;;;;10.52;6.18;;;;;;;;;;4948835;28;20019;-58
2021/10/08 02:52:07;;;;;;;9.18;5.97;;;;;;;;;;4967151;28;20033;-58
2021/10/08 02:54:32;;;;;;;11.57;6.25;;;;;;;;;;4973192;28;20221;-58
2021/10/08 02:56:58;;;;;;;9.80;5.30;;;;;;;;;;4971457;28;20081;-58
2021/10/08 02:59:23;;;;;;;8.90;5.40;;;;;;;;;;4956759;28;20030;-58
2021/10/08 03:01:49;;;;;;;9.50;6.03;;;;;;;;;;4967963;28;20031;-58
2021/10/08 03:04:14;;;;;;;9.85;5.82;;;;;;;;;;4971380;28;20041;-59
2021/10/08 03:06:40;;;;;;;10.18;5.90;;;;;;;;;;4960338;28;20034;-58
2021/10/08 03:09:05;;;;;;;9.02;5.43;;;;;;;;;;4971893;28;20289;-58
2021/10/08 03:11:31;;;;;;;11.63;6.20;;;;;;;;;;4971738;28;20405;-58
2021/10/08 03:13:56;;;;;;;12.02;6.95;;;;;;;;;;4969688;28;20062;-58
2021/10/08 03:16:22;;;;;;;22.40;9.15;;;;;;;;;;4970391;28;20515;-59
2021/10/08 03:18:47;;;;;;;21.83;9.60;;;;;;;;;;4968695;28;20023;-58
2021/10/08 03:21:13;;;;;;;18.15;8.55;;;;;;;;;;4969984;28;20077;-58
2021/10/08 03:23:38;;;;;;;17.95;8.23;;;;;;;;;;4953720;28;20106;-58
2021/10/08 03:26:03;;;;;;;20.05;9.18;;;;;;;;;;4968976;28;20076;-59
2021/10/08 03:28:29;;;;;;;16.55;8.02;;;;;;;;;;4976501;28;20595;-58
2021/10/08 03:30:55;;;;;;;23.90;10.35;;;;;;;;;;4971146;28;20136;-58
2021/10/08 03:33:20;;;;;;;24.65;10.50;;;;;;;;;;4968930;28;20034;-58
2021/10/08 03:35:46;;;;;;;24.05;10.05;;;;;;;;;;4966995;28;20023;-58
2021/10/08 03:38:16;;;;;;;27.00;10.50;;;;;;;;;;4969847;28;20041;-58
2021/10/08 03:40:45;;;;;;;20.27;9.10;;;;;;;;;;4967304;28;20034;-58
2021/10/08 03:43:13;;;;;;;24.77;10.45;;;;;;;;;;4967883;28;20535;-58
2021/10/08 03:45:48;;;;;;;19.70;9.18;;;;;;;;;;4952682;28;20385;-59
2021/10/08 03:51:01;;;;;;;19.35;9.18;;;;;;;;;;4968069;28;20058;-58
2021/10/08 03:53:26;;;;;;;22.02;10.90;;;;;;;;;;4957543;28;20034;-57
2021/10/08 03:55:52;;;;;;;20.30;9.77;;;;;;;;;;4972719;28;20034;-58
2021/10/08 03:58:17;;;;;;;15.15;8.30;;;;;;;;;;4952855;28;20497;-59
2021/10/08 04:00:43;;;;;;;15.27;8.55;;;;;;;;;;4967819;28;20497;-58
2021/10/08 04:03:08;;;;;;;15.20;7.70;;;;;;;;;;4974219;28;20026;-58
2021/10/08 04:05:33;;;;;;;13.98;8.23;;;;;;;;;;4968179;28;20686;-58
2021/10/08 04:07:59;;;;;;;16.92;8.15;;;;;;;;;;4967862;28;20050;-58
2021/10/08 04:10:24;;;;;;;12.48;7.70;;;;;;;;;;4952595;28;20031;-58
2021/10/08 04:12:50;;;;;;;16.20;8.48;;;;;;;;;;4969277;28;20038;-58
2021/10/08 04:15:15;;;;;;;16.55;7.80;;;;;;;;;;4952446;28;20123;-58
2021/10/08 04:17:41;;;;;;;20.05;10.45;;;;;;;;;;4957735;28;20401;-57
2021/10/08 04:20:06;;;;;;;19.88;10.30;;;;;;;;;;4968575;28;20396;-58
2021/10/08 04:22:32;;;;;;;17.98;9.68;;;;;;;;;;4967456;28;20481;-58
2021/10/08 04:24:57;;;;;;;17.48;8.98;;;;;;;;;;4973806;28;20453;-58
2021/10/08 04:27:23;;;;;;;17.10;8.90;;;;;;;;;;4966638;28;20218;-58
2021/10/08 04:29:48;;;;;;;15.70;8.98;;;;;;;;;;4969336;28;20217;-58
2021/10/08 04:32:14;;;;;;;19.67;10.60;;;;;;;;;;4972542;28;20529;-58
2021/10/08 04:34:39;;;;;;;21.02;10.50;;;;;;;;;;4954781;28;20097;-58
2021/10/08 04:37:05;;;;;;;20.65;11.27;;;;;;;;;;4974268;28;20022;-58
2021/10/08 04:39:30;;;;;;;19.10;9.82;;;;;;;;;;4974253;28;20033;-58
2021/10/08 04:41:56;;;;;;;27.60;10.98;;;;;;;;;;4969650;28;20027;-58
2021/10/08 04:44:21;;;;;;;29.95;11.75;;;;;;;;;;4969227;28;20457;-58
2021/10/08 04:46:46;;;;;;;26.25;10.77;;;;;;;;;;4950065;28;20042;-58
2021/10/08 04:49:12;;;;;;;20.88;9.95;;;;;;;;;;4969144;28;20057;-58
2021/10/08 04:51:37;;;;;;;19.77;10.55;;;;;;;;;;4970108;28;20148;-58
2021/10/08 04:54:03;;;;;;;23.42;10.75;;;;;;;;;;4952161;28;20039;-58
2021/10/08 04:56:32;;;;;;;21.70;10.70;;;;;;;;;;4970650;28;20161;-58
2021/10/08 04:58:59;;;;;;;20.40;9.88;;;;;;;;;;4967554;28;20034;-58
2021/10/08 05:01:24;;;;;;;17.80;9.43;;;;;;;;;;4966311;28;20062;-58
2021/10/08 05:03:49;;;;;;;20.52;10.90;;;;;;;;;;4964835;28;20128;-58
2021/10/08 05:06:15;;;;;;;20.60;9.85;;;;;;;;;;4964386;28;20053;-58
2021/10/08 05:08:40;;;;;;;23.40;11.50;;;;;;;;;;4968034;28;20423;-59
2021/10/08 05:11:06;;;;;;;22.63;11.65;;;;;;;;;;4965691;28;20030;-59
2021/10/08 05:13:31;;;;;;;21.75;11.20;;;;;;;;;;4956383;28;20482;-59
2021/10/08 05:15:57;;;;;;;18.30;9.98;;;;;;;;;;4965577;28;20042;-59
2021/10/08 05:18:22;;;;;;;17.20;9.43;;;;;;;;;;4964971;28;20324;-59
2021/10/08 05:20:47;;;;;;;18.92;10.15;;;;;;;;;;4948399;28;20395;-59
2021/10/08 05:23:13;;;;;;;20.35;10.52;;;;;;;;;;4962392;28;20050;-59
2021/10/08 05:25:38;;;;;;;21.50;11.10;;;;;;;;;;4964335;28;20044;-59
2021/10/08 05:28:05;;;;;;;19.73;10.50;;;;;;;;;;4966827;28;20026;-59
2021/10/08 05:30:30;;;;;;;24.33;11.70;;;;;;;;;;4948360;28;20224;-59
2021/10/08 05:32:55;;;;;;;21.85;11.35;;;;;;;;;;4961946;28;20027;-59
2021/10/08 05:35:21;;;;;;;21.42;11.73;;;;;;;;;;4964802;28;20039;-59
2021/10/08 05:37:46;;;;;;;26.98;12.30;;;;;;;;;;4965009;28;20027;-59
2021/10/08 05:40:12;;;;;;;25.60;11.80;;;;;;;;;;4968800;28;20022;-59
2021/10/08 05:42:38;;;;;;;23.08;11.55;;;;;;;;;;4947549;28;20046;-60
2021/10/08 05:45:04;;;;;;;24.80;12.02;;;;;;;;;;4964692;28;20031;-59
2021/10/08 05:47:29;;;;;;;22.40;11.85;;;;;;;;;;4953746;28;20393;-59
2021/10/08 05:49:54;;;;;;;24.23;12.23;;;;;;;;;;4965974;28;20125;-59
2021/10/08 05:52:20;;;;;;;26.35;13.30;;;;;;;;;;4963936;28;20027;-59
2021/10/08 05:54:45;;;;;;;26.38;13.05;;;;;;;;;;4970208;28;20374;-59
2021/10/08 05:57:11;;;;;;;27.45;13.30;;;;;;;;;;4961655;28;20030;-59
2021/10/08 05:59:37;;;;;;;42.72;20.05;;;;;;;;;;4963208;28;20041;-58
2021/10/08 06:02:03;;;;;;;21.60;8.90;;;;;;;;;;4950955;28;20018;-55
2021/10/08 06:04:28;;;;;;;25.48;12.02;;;;;;;;;;4965644;28;20027;-58
2021/10/08 06:06:54;;;;;;;50.97;22.33;;;;;;;;;;4966700;28;20030;-58
2021/10/08 06:09:19;;;;;;;42.30;18.77;;;;;;;;;;4966581;28;20058;-58
2021/10/08 06:11:45;;;;;;;28.00;13.35;;;;;;;;;;4965807;28;20474;-58
2021/10/08 06:14:10;;;;;;;26.05;12.73;;;;;;;;;;4963595;28;20503;-59
2021/10/08 06:16:36;;;;;;;27.00;13.55;;;;;;;;;;4961244;28;20039;-58
2021/10/08 06:19:02;;;;;;;26.38;13.35;;;;;;;;;;4963398;28;20023;-58
2021/10/08 06:21:27;;;;;;;25.33;14.13;;;;;;;;;;4949711;28;20171;-58
2021/10/08 06:23:53;;;;;;;25.38;14.85;;;;;;;;;;4962326;28;20093;-59
2021/10/08 06:26:18;;;;;;;28.60;15.65;;;;;;;;;;4970212;28;20035;-58
2021/10/08 06:28:44;;;;;;;28.20;16.17;;;;;;;;;;4967435;28;20089;-59
2021/10/08 06:31:09;;;;;;;31.05;16.40;;;;;;;;;;4968585;28;20055;-59
2021/10/08 06:33:34;;;;;;;31.98;17.08;;;;;;;;;;4963876;28;20027;-58
2021/10/08 06:36:00;;;;;;;33.83;16.30;;;;;;;;;;4963099;28;20588;-59
2021/10/08 06:38:25;;;;;;;30.92;16.95;;;;;;;;;;4949201;28;20035;-58
2021/10/08 06:40:51;;;;;;;31.50;18.00;;;;;;;;;;4948898;28;21079;-59
2021/10/08 06:43:17;;;;;;;30.40;17.17;;;;;;;;;;4963654;28;20026;-58
2021/10/08 06:45:42;;;;;;;27.90;16.02;;;;;;;;;;4960339;28;20386;-59
2021/10/08 06:48:08;;;;;;;27.50;14.73;;;;;;;;;;4947200;28;20053;-59
2021/10/08 06:50:33;;;;;;;28.75;14.52;;;;;;;;;;4964488;28;20038;-59
2021/10/08 06:52:59;;;;;;;31.05;16.33;;;;;;;;;;4948358;28;20039;-58
2021/10/08 06:55:24;;;;;;;34.97;17.33;;;;;;;;;;4960278;28;20030;-59
2021/10/08 06:57:50;;;;;;;27.95;16.33;;;;;;;;;;4969589;28;20401;-59
2021/10/08 07:00:15;;;;;;;30.90;16.23;;;;;;;;;;4964185;28;20030;-58
2021/10/08 07:02:52;;;;;;;35.33;17.05;;;;;;;;;;4944246;28;20347;-59
2021/10/08 07:05:20;;;;;;;33.00;17.90;;;;;;;;;;4973091;28;20039;-58
2021/10/08 07:07:45;;;;;;;29.77;16.30;;;;;;;;;;4966845;28;20439;-59
2021/10/08 07:10:12;;;;;;;33.50;18.10;;;;;;;;;;4964468;28;20027;-58
2021/10/08 07:12:37;;;;;;;37.13;20.45;;;;;;;;;;4967617;28;20039;-59
2021/10/08 07:15:06;;;;;;;39.80;19.58;;;;;;;;;;4967750;28;20052;-58
2021/10/08 07:17:32;;;;;;;44.00;20.10;;;;;;;;;;4964965;28;20584;-58
2021/10/08 07:19:57;;;;;;;36.28;18.00;;;;;;;;;;4965398;28;20345;-58
2021/10/08 07:22:24;;;;;;;36.92;17.73;;;;;;;;;;4952972;28;20043;-59
2021/10/08 07:24:49;;;;;;;34.53;17.40;;;;;;;;;;4948684;28;20061;-59
2021/10/08 07:27:16;;;;;;;41.13;19.90;;;;;;;;;;4965488;28;20109;-58
2021/10/08 07:29:41;;;;;;;36.60;18.58;;;;;;;;;;4966149;28;20054;-58
2021/10/08 07:32:07;;;;;;;34.65;18.10;;;;;;;;;;4951212;28;20027;-58
2021/10/08 07:34:33;;;;;;;31.30;16.98;;;;;;;;;;4967969;28;20053;-59
2021/10/08 07:36:58;;;;;;;27.73;15.13;;;;;;;;;;4949397;28;20035;-59
2021/10/08 07:39:24;;;;;;;26.55;15.02;;;;;;;;;;4967320;28;20129;-59
2021/10/08 07:41:49;;;;;;;30.13;16.27;;;;;;;;;;4968698;28;20030;-58
2021/10/08 07:44:15;;;;;;;34.85;18.45;;;;;;;;;;4971883;28;20067;-59
2021/10/08 07:46:41;;;;;;;27.95;15.85;;;;;;;;;;4974045;28;20382;-58
2021/10/08 07:49:06;;;;;;;33.17;16.75;;;;;;;;;;4949389;28;20031;-59
2021/10/08 07:51:32;;;;;;;39.72;19.50;;;;;;;;;;4971391;28;20038;-58
2021/10/08 07:53:58;;;;;;;36.53;18.83;;;;;;;;;;4975046;28;20033;-58
2021/10/08 07:56:24;;;;;;;40.65;19.45;;;;;;;;;;4968030;28;20128;-58
2021/10/08 07:58:50;;;;;;;36.47;18.58;;;;;;;;;;4968179;28;20094;-59
2021/10/08 08:01:15;;;;;;;36.95;17.67;;;;;;;;;;4967177;28;20027;-58
2021/10/08 08:03:41;;;;;;;33.47;18.30;;;;;;;;;;4969352;28;20037;-59
2021/10/08 08:06:06;;;;;;;35.08;17.73;;;;;;;;;;4966011;28;20438;-59
2021/10/08 08:08:32;;;;;;;34.65;18.20;;;;;;;;;;4969093;28;21886;-60
2021/10/08 08:10:57;;;;;;;37.75;19.55;;;;;;;;;;4968011;28;20029;-57
2021/10/08 08:13:23;;;;;;;37.97;20.45;;;;;;;;;;4967442;28;20031;-58
2021/10/08 08:15:48;;;;;;;36.33;19.15;;;;;;;;;;4974273;28;20026;-58
2021/10/08 08:18:14;;;;;;;40.95;18.90;;;;;;;;;;4972442;28;20390;-59
2021/10/08 08:20:40;;;;;;;39.60;20.73;;;;;;;;;;4970446;28;20078;-58
2021/10/08 08:23:06;;;;;;;42.50;20.50;;;;;;;;;;4974027;28;20026;-58
2021/10/08 08:25:31;;;;;;;36.35;19.50;;;;;;;;;;4954434;28;20477;-60
2021/10/08 08:27:57;;;;;;;35.60;18.27;;;;;;;;;;4970719;28;20039;-59
2021/10/08 08:30:22;;;;;;;44.30;21.63;;;;;;;;;;4956387;28;20062;-60
2021/10/08 08:32:48;;;;;;;37.28;19.40;;;;;;;;;;4970403;28;20035;-59
2021/10/08 08:35:13;;;;;;;49.30;23.65;;;;;;;;;;4970582;28;20456;-59
2021/10/08 08:37:38;;;;;;;40.55;20.55;;;;;;;;;;4955505;28;20141;-59
2021/10/08 08:40:06;;;;;;;33.55;19.15;;;;;;;;;;4967903;28;20033;-59
2021/10/08 08:42:33;;;;;;;34.33;18.83;;;;;;;;;;4972463;28;20022;-59
2021/10/08 08:44:58;;;;;;;34.60;17.95;;;;;;;;;;4951068;28;20508;-59
2021/10/08 08:47:24;;;;;;;33.63;18.40;;;;;;;;;;4968041;28;20117;-59
2021/10/08 08:49:50;;;;;;;37.17;19.38;;;;;;;;;;4971835;28;20042;-59
2021/10/08 08:52:17;;;;;;;33.42;18.05;;;;;;;;;;4968131;28;20058;-58
2021/10/08 08:54:44;;;;;;;37.13;18.85;;;;;;;;;;4969969;28;20291;-59
2021/10/08 08:57:16;;;;;;;30.08;17.23;;;;;;;;;;4972100;28;20026;-59
2021/10/08 09:00:06;;;;;;;32.50;16.92;;;;;;;;;;4969744;28;20069;-59
2021/10/08 09:02:32;;;;;;;;;;;;;;;;;;4969626;28;20041;-58
2021/10/08 09:04:57;;;;;;;25.17;15.43;;;;;;;;;;4969122;28;20013;-59
2021/10/08 09:07:29;;;;;;;30.67;16.17;;;;;;;;;;4966974;28;20189;-59
2021/10/08 09:09:54;;;;;;;32.53;16.52;;;;;;;;;;4967009;28;20023;-59
2021/10/08 09:12:21;;;;;;;33.15;18.13;;;;;;;;;;4965126;28;20037;-59
2021/10/08 09:14:46;;;;;;;30.35;16.73;;;;;;;;;;4966324;28;20486;-58
2021/10/08 09:17:15;;;;;;;35.28;18.65;;;;;;;;;;4967960;28;20106;-58
2021/10/08 09:19:47;;;;;;;44.53;19.15;;;;;;;;;;4951894;28;20118;-58
2021/10/08 09:22:16;;;;;;;34.63;18.40;;;;;;;;;;4968010;28;20035;-58
2021/10/08 09:24:41;;;;;;;31.83;17.17;;;;;;;;;;4948165;28;20034;-59
2021/10/08 09:27:11;;;;;;;30.65;16.27;;;;;;;;;;4965683;28;20041;-58
2021/10/08 09:29:37;;;;;;;;;;;;;;;;;;4967127;28;20050;-58
2021/10/08 09:32:03;;;;;;;29.63;15.93;;;;;;;;;;4952138;28;19922;-58
2021/10/08 09:34:29;;;;;;;30.55;16.60;;;;;;;;;;4963225;28;20425;-58
2021/10/08 09:37:01;;;;;;;26.38;14.52;;;;;;;;;;4964523;28;20030;-58
2021/10/08 09:39:30;;;;;;;29.38;15.70;;;;;;;;;;4969193;28;20481;-58
2021/10/08 09:42:12;;;;;;;26.52;15.13;;;;;;;;;;4975333;28;20053;-59
2021/10/08 09:44:47;;;;;;;28.60;14.45;;;;;;;;;;4950109;28;20042;-58
2021/10/08 09:47:15;;;;;;;32.33;16.08;;;;;;;;;;4969859;28;20121;-59
2021/10/08 09:49:43;;;;;;;26.42;15.25;;;;;;;;;;4971934;28;20045;-58
2021/10/08 09:52:24;;;;;;;29.15;15.13;;;;;;;;;;4966800;28;20512;-58
2021/10/08 09:55:03;;;;;;;27.27;15.60;;;;;;;;;;4965289;28;20197;-58
2021/10/08 09:57:49;;;;;;;25.27;14.45;;;;;;;;;;4952735;28;20045;-58
2021/10/08 10:00:38;;;;;;;27.30;14.75;;;;;;;;;;4968170;28;20057;-58
2021/10/08 10:03:06;;;;;;;23.75;14.13;;;;;;;;;;4946021;28;20502;-58
2021/10/08 10:05:32;;;;;;;28.88;15.38;;;;;;;;;;4967204;28;20042;-59
2021/10/08 10:07:58;;;;;;;27.23;15.13;;;;;;;;;;4966372;28;20081;-59
2021/10/08 10:10:24;;;;;;;27.00;14.10;;;;;;;;;;4966476;28;20034;-59
2021/10/08 10:12:51;;;;;;;28.48;16.02;;;;;;;;;;4951482;28;20038;-58
2021/10/08 10:15:20;;;;;;;29.13;16.10;;;;;;;;;;4964657;28;20073;-57
2021/10/08 10:17:47;;;;;;;28.45;15.68;;;;;;;;;;4967895;28;20374;-59
2021/10/08 10:20:13;;;;;;;29.13;15.48;;;;;;;;;;4948678;28;20038;-59
2021/10/08 10:22:41;;;;;;;28.25;15.80;;;;;;;;;;4964996;28;20031;-59
2021/10/08 10:25:08;;;;;;;28.08;14.73;;;;;;;;;;4964494;28;20026;-59
2021/10/08 10:27:34;;;;;;;28.02;15.63;;;;;;;;;;4969195;28;20045;-59
2021/10/08 10:30:00;;;;;;;27.23;14.70;;;;;;;;;;4965307;28;20449;-60
2021/10/08 10:32:26;;;;;;;28.83;14.93;;;;;;;;;;4961573;28;20119;-59
2021/10/08 10:34:52;;;;;;;26.30;14.95;;;;;;;;;;4965851;28;20405;-60
2021/10/08 10:37:41;;;;;;;21.42;14.40;;;;;;;;;;4946866;28;20046;-60
2021/10/08 10:40:17;;;;;;;27.83;14.35;;;;;;;;;;4951918;28;20178;-59
2021/10/08 10:42:43;;;;;;;22.60;14.02;;;;;;;;;;4963957;28;20485;-60
2021/10/08 10:45:16;;;;;;;27.27;14.60;;;;;;;;;;4950168;28;21840;-60
2021/10/08 10:47:44;;;;;;;26.63;14.32;;;;;;;;;;4943870;28;20026;-59
2021/10/08 10:50:27;;;;;;;23.08;13.60;;;;;;;;;;4962812;28;20030;-60
2021/10/08 10:52:56;;;;;;;23.58;14.82;;;;;;;;;;4961710;28;20031;-60
2021/10/08 10:55:23;;;;;;;24.92;14.60;;;;;;;;;;4972553;28;20022;-58
2021/10/08 10:57:57;;;;;;;25.40;15.05;;;;;;;;;;4967337;28;20035;-59
2021/10/08 11:00:59;;;;;;;25.27;14.38;;;;;;;;;;4966161;28;20476;-58
2021/10/08 11:03:32;;;;;;;25.90;14.77;;;;;;;;;;4950198;28;20051;-58
2021/10/08 11:06:12;;;;;;;23.95;14.65;;;;;;;;;;4963974;28;20557;-58
2021/10/08 11:09:09;;;;;;;27.45;14.57;;;;;;;;;;4964424;28;20053;-58
2021/10/08 11:11:35;;;;;;;27.35;14.82;;;;;;;;;;4962377;28;20035;-58
2021/10/08 11:14:17;;;;;;;24.80;14.18;;;;;;;;;;4948764;28;20482;-58
2021/10/08 11:16:43;;;;;;;25.60;14.77;;;;;;;;;;4975089;28;20070;-59
2021/10/08 11:19:39;;;;;;;22.20;14.68;;;;;;;;;;4966684;28;20062;-58
2021/10/08 11:22:05;;;;;;;27.27;14.93;;;;;;;;;;4967223;28;20052;-59
2021/10/08 11:24:30;;;;;;;23.77;14.52;;;;;;;;;;4974693;28;20046;-59
2021/10/08 11:26:59;;;;;;;25.23;14.20;;;;;;;;;;4967906;28;20038;-58
2021/10/08 11:29:40;;;;;;;26.67;14.30;;;;;;;;;;4967562;28;20058;-58
2021/10/08 11:32:07;;;;;;;24.67;14.75;;;;;;;;;;4969145;28;20057;-58
2021/10/08 11:34:33;;;;;;;27.25;14.55;;;;;;;;;;4970552;28;20045;-58
2021/10/08 11:36:59;;;;;;;28.48;15.15;;;;;;;;;;4970562;28;20485;-59
2021/10/08 11:39:26;;;;;;;29.20;15.52;;;;;;;;;;4970465;28;20048;-58
2021/10/08 11:42:00;;;;;;;22.83;13.70;;;;;;;;;;4968899;28;20023;-59
2021/10/08 11:44:29;;;;;;;24.10;13.63;;;;;;;;;;4970585;28;20039;-58
2021/10/08 11:47:15;;;;;;;29.38;14.98;;;;;;;;;;4969380;28;20515;-59
2021/10/08 11:52:46;;;;;;;26.10;14.65;;;;;;;;;;4945637;28;20039;-59
2021/10/08 11:55:18;;;;;;;25.40;14.30;;;;;;;;;;4970780;28;20031;-60
2021/10/08 11:57:57;;;;;;;25.05;12.98;;;;;;;;;;4968751;28;20045;-59
2021/10/08 12:00:27;;;;;;;24.00;14.02;;;;;;;;;;4970223;28;20609;-60
2021/10/08 12:03:12;;;;;;;24.63;14.25;;;;;;;;;;4970392;28;20023;-58
2021/10/08 12:05:52;;;;;;;28.65;14.10;;;;;;;;;;4947399;28;20037;-59
2021/10/08 12:08:23;;;;;;;22.70;9.98;;;;;;;;;;4964039;28;20035;-59
2021/10/08 12:10:54;;;;;;;18.00;9.82;;;;;;;;;;4968258;28;20065;-57
2021/10/08 12:13:20;;;;;;;15.68;8.63;;;;;;;;;;4968659;28;20035;-57
2021/10/08 12:15:46;;;;;;;19.52;9.55;;;;;;;;;;4951612;28;20080;-56
2021/10/08 12:18:15;;;;;;;22.52;12.82;;;;;;;;;;4964473;28;20437;-60
2021/10/08 12:20:41;;;;;;;;;;;;;;;;;;4969357;28;20026;-59
2021/10/08 12:23:32;;;;;;;24.65;13.30;;;;;;;;;;4969980;28;19921;-58
2021/10/08 12:25:58;;;;;;;24.30;13.18;;;;;;;;;;4945824;28;20501;-59
2021/10/08 12:28:25;;;;;;;24.88;14.10;;;;;;;;;;4955683;28;20054;-59
2021/10/08 12:31:11;;;;;;;25.38;13.50;;;;;;;;;;4971478;28;20563;-59
2021/10/08 12:33:43;;;;;;;25.30;13.88;;;;;;;;;;4973070;28;20051;-58
2021/10/08 12:36:17;;;;;;;27.00;14.02;;;;;;;;;;4966618;28;20470;-58
2021/10/08 12:39:06;;;;;;;27.13;14.25;;;;;;;;;;4970454;28;20126;-59
2021/10/08 12:41:58;;;;;;;25.67;14.07;;;;;;;;;;4960993;28;20041;-59
2021/10/08 12:44:30;;;;;;;23.23;13.65;;;;;;;;;;4972602;28;20258;-60
2021/10/08 12:49:54;;;;;;;25.13;13.35;;;;;;;;;;4967262;28;20027;-60
2021/10/08 12:52:33;;;;;;;24.88;13.60;;;;;;;;;;4950492;28;20037;-59
2021/10/08 12:55:12;;;;;;;27.88;14.70;;;;;;;;;;4945195;28;20027;-58
2021/10/08 12:58:06;;;;;;;26.17;12.45;;;;;;;;;;4969090;28;20396;-58
2021/10/08 13:00:34;;;;;;;25.80;13.63;;;;;;;;;;4967207;28;20034;-59
2021/10/08 13:02:59;;;;;;;22.45;12.73;;;;;;;;;;4968568;28;20026;-58
2021/10/08 13:05:24;;;;;;;20.52;12.32;;;;;;;;;;4969649;28;20022;-58
2021/10/08 13:08:16;;;;;;;26.45;13.40;;;;;;;;;;4969490;28;20117;-59
2021/10/08 13:11:01;;;;;;;29.10;14.45;;;;;;;;;;4960009;28;20485;-59
2021/10/08 13:13:36;;;;;;;20.58;11.25;;;;;;;;;;4968077;28;20042;-59
2021/10/08 13:16:02;;;;;;;20.70;10.73;;;;;;;;;;4968489;28;20555;-57
2021/10/08 13:18:44;;;;;;;25.10;13.15;;;;;;;;;;4967073;28;20117;-59
2021/10/08 13:21:11;;;;;;;25.50;13.05;;;;;;;;;;4964455;28;20031;-58
2021/10/08 13:23:37;;;;;;;25.88;13.35;;;;;;;;;;4964951;28;20066;-58
2021/10/08 13:26:03;;;;;;;25.95;13.13;;;;;;;;;;4948982;28;20054;-59
2021/10/08 13:28:28;;;;;;;23.52;13.43;;;;;;;;;;4947918;28;20073;-58
2021/10/08 13:30:56;;;;;;;20.83;10.25;;;;;;;;;;4964987;28;20041;-59
2021/10/08 13:33:22;;;;;;;32.50;14.18;;;;;;;;;;4948972;28;20030;-58
2021/10/08 13:35:56;;;;;;;25.05;13.50;;;;;;;;;;4966689;28;20050;-59
2021/10/08 13:38:23;;;;;;;24.35;10.18;;;;;;;;;;4965777;28;20082;-55
2021/10/08 13:40:50;;;;;;;20.92;11.32;;;;;;;;;;4965819;28;20085;-56
2021/10/08 13:43:16;;;;;;;24.67;11.32;;;;;;;;;;4967657;28;20056;-55
2021/10/08 13:45:41;;;;;;;19.45;11.10;;;;;;;;;;4967807;28;20026;-54
2021/10/08 13:48:07;;;;;;;20.90;12.13;;;;;;;;;;4949062;28;20049;-55
2021/10/08 13:50:36;;;;;;;28.13;13.77;;;;;;;;;;4968622;28;20030;-59
2021/10/08 13:53:05;;;;;;;26.37;14.03;;;;;;;;;;4949248;28;20125;-59
2021/10/08 13:55:33;;;;;;;25.35;13.10;;;;;;;;;;4968247;28;20611;-59
2021/10/08 13:57:59;;;;;;;24.40;13.10;;;;;;;;;;4945986;28;20038;-59
2021/10/08 14:00:27;;;;;;;22.40;13.05;;;;;;;;;;4965107;28;20027;-59
2021/10/08 14:05:29;;;;;;;19.35;10.30;;;;;;;;;;4964517;28;20125;-56
2021/10/08 14:10:39;;;;;;;23.75;12.35;;;;;;;;;;4965179;28;20065;-59
2021/10/08 14:13:04;;;;;;;25.58;12.15;;;;;;;;;;4950432;28;20513;-58
2021/10/08 14:15:31;;;;;;;18.98;11.10;;;;;;;;;;4964041;28;20521;-58
2021/10/08 14:17:56;;;;;;;23.63;13.23;;;;;;;;;;4963783;28;20041;-58
2021/10/08 14:20:23;;;;;;;23.70;12.18;;;;;;;;;;4961920;28;20034;-59
2021/10/08 14:22:49;;;;;;;21.13;12.45;;;;;;;;;;4968300;28;20099;-59
2021/10/08 14:25:17;;;;;;;26.02;13.38;;;;;;;;;;4967882;28;20041;-58
2021/10/08 14:27:42;;;;;;;25.10;12.52;;;;;;;;;;4962412;28;20022;-59
2021/10/08 14:30:11;;;;;;;23.05;13.75;;;;;;;;;;4962273;28;20054;-58
2021/10/08 14:32:37;;;;;;;22.52;13.60;;;;;;;;;;4970351;28;20042;-59
2021/10/08 14:35:03;;;;;;;23.77;13.27;;;;;;;;;;4962083;28;20035;-58
2021/10/08 14:37:29;;;;;;;26.42;13.93;;;;;;;;;;4965113;28;20386;-58
2021/10/08 14:39:55;;;;;;;27.30;14.52;;;;;;;;;;4968485;28;20026;-58
2021/10/08 14:42:21;;;;;;;27.70;14.30;;;;;;;;;;4965720;28;20022;-58